Florida AWOS List, Phone Numbers

USA |  
| Search AWOS

Rocky Mountain States: Montana | Wyoming | Colorado | New Mexico

Complete weather reports: Florida

Legend: KFNL = METAR available Follow your local AWOS on AV Mobile = METAR available on AV Mobile
Station Florida Location Frequency Phone
KAQQICAO ID KAQQ Apalachicola, Apalachicola
KAAFFAA ID AAF, ASOS, KAAF 272153Z AUTO 01007KT 4SM RA BR BKN110 22/20 A2984 RMK AO2 LTG DSNT E-S TSE08 SLP104 P0010 T02220200 Follow KAAF on AV Mobile APALACHICOLA MUNICIPAL AIRPORT 119.925 850-653-8271
KNAEICAO ID KNAE Astor, Bombing Range Detachment Astor
KAVOFAA ID AVO, AWOS-3 AVON PARK 118.725 863-453-4223
KAGRFAA ID AGR Avon Park Gunnery Range
KBOWFAA ID BOW, AWOS-3, KBOW 272155Z AUTO 32008KT 10SM BKN070 27/18 A2984 RMK AO2 Follow KBOW on AV Mobile Bartow Municipal 123.775 863-533-9004
F95FAA ID F95, AWOS-AV, KTEX 070640Z AUTO 15005KT 10SM CLR 02/M16 A3038 RMK AO2 T00201164 Follow  on AV Mobile BLOUNTSTOWN 119.350 850-674-1347
KBCTFAA ID BCT, AWOS-3, KBCT 272147Z 16010G15KT 7SM -RA SCT028 OVC065 28/24 A2977 Follow KBCT on AV Mobile Boca Raton, Boca Raton Airport 121.125 561-391-2696
K1J0FAA ID 1J0, K1J0 272158Z AUTO 00000KT 10SM 19/17 A2979 RMK AO2 TSE2059 SLP045 T01940172 $ Follow K1J0 on AV Mobile TRI COUNTY AIRPORT
KBKVFAA ID BKV, ASOS, KBKV 272153Z AUTO 32011KT 10SM CLR 24/18 A2984 RMK AO2 SLP104 T02440178 Follow KBKV on AV Mobile BROOKSVILLE HERNANDO CO AIRPORT 134.725 352-799-5881
K1J4ICAO ID K1J4 Cape San Blas Coast Guard Station
KNZCICAO ID KNZC Cecil, Naval Air Station
2ISFAA ID 2IS, AWOS-3, KTEX 070640Z AUTO 15005KT 10SM CLR 02/M16 A3038 RMK AO2 T00201164 Follow  on AV Mobile CLEWISTON 124.175 863-983-7020
KX53ICAO ID KX53 Clewiston
KCOFFAA ID COF, KCOF 272058Z AUTO 32015G20KT 10SM CLR 28/20 A2980 RMK AO2 SLP095 T02840196 52004 $ Follow KCOF on AV Mobile Cocoa / Patrick Air Force Base
KXMRFAA ID XMR, KXMR 272058Z AUTO 32013KT 10SM CLR 27/20 A2980 RMK AO2 SLP094 T02690200 52004 $ Follow KXMR on AV Mobile Cocoa Beach, Cape Canaveral Air Force Station Skid Strip
KCEWFAA ID CEW, ASOS, KCEW 272153Z AUTO 03003KT 6SM BR CLR 18/18 A2978 RMK AO2 SLP081 T01830183 Follow KCEW on AV Mobile CRESTVIEW SIKES AIRPORT 119.275 850-682-1237
KEGIFAA ID EGI, KEGI 272155Z 10004KT 10SM FEW035 OVC100 18/17 A2973 RMK AO2A SLP069 T01810168 $ Follow KEGI on AV Mobile Duke Field / Eglin Auxiliary
KCTYFAA ID CTY, KCTY 272153Z AUTO 26006KT 21/19 A2983 RMK AO1 SLP099 P0005 T02110194 Follow KCTY on AV Mobile CROSS CITY AIRPORT
KCGCFAA ID CGC, AWOS-3, KCGC 272155Z AUTO 30006KT 10SM SCT046 22/18 A2984 RMK AO2 Follow KCGC on AV Mobile CRYSTAL RIVER 118.325 352-563-6600
KDABFAA ID DAB, ASOS, KDAB 272153Z 36004KT 8SM -RA FEW016 BKN075 OVC120 23/21 A2984 RMK AO2 RAE18B39 SLP103 P0001 T02280206 Follow KDAB on AV Mobile DAYTONA BEACH INTERNATIONAL 386-253-7469
54JFAA ID 54J, AWOS-3P, KTEX 070640Z AUTO 15005KT 10SM CLR 02/M16 A3038 RMK AO2 T00201164 Follow  on AV Mobile DEFUNIAK SPRINGS 118.725 850-892-0147
KDEDFAA ID DED, AWOS-3, KDED 272155Z AUTO 27005KT 24/22 A2984 RMK AO1 Follow KDED on AV Mobile DELAND 119.575 386-740-5811
KDTSFAA ID DTS, ASOS, KDTS 272153Z AUTO 09007KT 10SM -RA FEW041 SCT095 BKN110 19/18 A2973 RMK AO2 SLP068 P0001 T01940183 TSNO $ Follow KDTS on AV Mobile DESTIN-FT WALTON BEACH AIRPORT 133.925 850-654-7128
KX91ICAO ID KX91 Egmont Key Coast Guard Station
KFHBFAA ID FHB, AWOS-3, KFHB 272135Z AUTO 05009KT 10SM OVC012 22/18 A2983 RMK AO1 Follow KFHB on AV Mobile FERNANDINA BEACH 118.075 904-277-7323
KFXEFAA ID FXE, ASOS, KFXE 272153Z 14011KT 10SM FEW060 31/24 A2975 RMK AO2 SLP078 T03060239 Follow KFXE on AV Mobile FORT LAUDERDALE EXECUTIVE 954-772-2537
KFLLFAA ID FLL, ASOS, KFLL 272153Z 15014G21KT 10SM FEW045 BKN055 OVC250 29/24 A2975 RMK AO2 SLP075 HALF T02940244 Follow KFLL on AV Mobile FORT LAUDERDALE/HOLLYWOOD 954-359-7857
KFMYFAA ID FMY, ASOS, KFMY 272153Z 26010KT 10SM CLR 32/22 A2979 RMK AO2 SLP088 T03170217 Follow KFMY on AV Mobile FORT MYERS PAGE FIELD 239-936-2318
KRSWFAA ID RSW, ASOS, KRSW 272153Z AUTO 27008KT 10SM FEW070 31/21 A2979 RMK AO2 SLP086 T03110206 Follow KRSW on AV Mobile FORT MYERS SW FL INTERNATIONAL AIRPORT 239-561-0966
KX82ICAO ID KX82 Fort Pierce Coast Guard Station
KFPRFAA ID FPR, ASOS, KFPR 272153Z AUTO 01008KT 10SM FEW070 FEW090 28/19 A2978 RMK AO2 SLP084 T02830194 TSNO Follow KFPR on AV Mobile FORT PIERCE ST LUCIE 772-489-4281
KX86ICAO ID KX86 Fowey Rocks Coast Guard Station
KX89ICAO ID KX89 Ft. Myers Beach Coast Guard Station
KGNVFAA ID GNV, ASOS, KGNV 272153Z 26008KT 10SM -RA SCT110 23/20 A2982 RMK AO2 LTG DSNT NE RAB2056E22B45 SLP096 P0000 T02280200 Follow KGNV on AV Mobile GAINESVILLE REGIONAL AIRPORT 352-335-8672
KHWOFAA ID HWO, ASOS, KHWO 272153Z 15012KT 9SM -TSRA FEW050 SCT090 BKN110 29/23 A2976 RMK AO2 LTG DSNT W RAB42 TSB40 SLP078 P0000 T02940233 Follow KHWO on AV Mobile HOLLYWOOD NORTH PERRY AIRPORT 954-983-5904
X51FAA ID X51, AWOS-3, KTEX 070640Z AUTO 15005KT 10SM CLR 02/M16 A3038 RMK AO2 T00201164 Follow  on AV Mobile HOMESTEAD 118.375 (305) 247-2791
KHSTFAA ID HST, KHST 272058Z AUTO 16010G17KT 10SM CLR 32/25 A2976 RMK AO2 SLP081 60011 T03210248 56017 Follow KHST on AV Mobile Homestead Air Force Base
KIMMFAA ID IMM, AWOS-3, KIMM 272155Z AUTO 27011KT 7SM CLR A2979 RMK A01 P000 Follow KIMM on AV Mobile IMMOKALEE 118.525 239-657-2038
KINFFAA ID INF, AWOS-3, KINF 272155Z AUTO 31005KT 10SM BKN016 BKN110 A2984 RMK AO2 Follow KINF on AV Mobile INVERNESS 119.975 352-341-0264
KX84ICAO ID KX84 Islamorada Coast Guard Station
KHEGFAA ID HEG, AWOS-3 JACKSONVILLE 119.275 904-695-0334
KCRGFAA ID CRG, ASOS, KCRG 272153Z 09008KT 10SM OVC014 20/17 A2983 RMK AO2 SLP100 T02000167 Follow KCRG on AV Mobile JACKSONVILLE CRAIG MUN 904-646-4670
KJAXFAA ID JAX, ASOS, KJAX 272156Z 07009KT 10SM SCT015 BKN021 OVC200 20/17 A2983 RMK AO2 SLP102 T02000172 Follow KJAX on AV Mobile JACKSONVILLE INTERNATIONAL 904-741-4304
KNIPFAA ID NIP, KNIP 272153Z 08008KT 9SM FEW016 BKN170 OVC250 23/18 A2982 RMK AO2 SLP094 T02330178 Follow KNIP on AV Mobile JACKSONVILLE NAVAL AIR STN
KVQQFAA ID VQQ, AWOS-3, KVQQ 272150Z 06005KT 10SM OVC029 23/19 A2983 Follow KVQQ on AV Mobile Jacksonville, Cecil Field Airport 125.275 904-778-6934
KNENFAA ID NEN NOLF WHITEHOUSE FIELD, FL
KX80ICAO ID KX80 Jupiter Inlet Coast Guard Station
KEYWFAA ID EYW, ASOS, KEYW 272153Z 12005KT 10SM CLR 31/24 A2977 RMK AO2 SLP082 T03060244 Follow KEYW on AV Mobile KEY WEST INTERNATIONAL AIRPORT 119.65 305-292-4046
KNQXFAA ID NQX, KNQX 272153Z 15007KT 10SM CLR 31/23 A2977 RMK AO2 SLP079 T03060233 $ Follow KNQX on AV Mobile KEY WEST NAVAL AIR STATION
K42JFAA ID 42J, AWOS-3, K42J 272155Z AUTO 26008KT 7SM FEW001 BKN015 BKN023 24/23 A2982 RMK AO1 TSNO Follow K42J on AV Mobile KEYSTONE HEIGHTS 124.275 352-473-8273
KLCQFAA ID LCQ, AWOS-3, KLCQ 272135Z AUTO 00000KT 10SM SCT024 SCT041 SCT050 23/19 A2982 RMK AO2 LTG DSNT W Follow KLCQ on AV Mobile LAKE CITY 120.675 386-754-9366
X07FAA ID X07, AWOS-3, KTEX 070640Z AUTO 15005KT 10SM CLR 02/M16 A3038 RMK AO2 T00201164 Follow  on AV Mobile LAKE WALES 124.225 863-678-1334
KX81ICAO ID KX81 Lake Worth Inlet
KLALFAA ID LAL, AWOS-3PT, KLAL 272150Z 32011G18KT 10SM SCT070 OVC200 27/19 A2983 Follow KLAL on AV Mobile Lakeland Regional 118.025 863-834-2030
KLEEFAA ID LEE, ASOS, KLEE 272153Z 31006KT 10SM CLR 24/19 A2983 RMK AO2 SLP101 T02390194 Follow KLEE on AV Mobile LEESBURG REGIONAL AIRPORT 134.325 352-787-1565
24JFAA ID 24J, AWOS-3, KTEX 070640Z AUTO 15005KT 10SM CLR 02/M16 A3038 RMK AO2 T00201164 Follow  on AV Mobile LIVE OAK 118.225 386-362-1731
KX88ICAO ID KX88 Marathon Coast Guard Station
KMTHFAA ID MTH, ASOS, KMTH 272153Z AUTO VRB04KT 10SM CLR 31/24 A2977 RMK AO2 SLP082 T03110244 Follow KMTH on AV Mobile MARATHON AIRPORT 135.525 305-743-8373
KMKYFAA ID MKY, AWOS-3, KMKY 272035Z AUTO 21008KT 10SM CLR 33/22 A2978 RMK AO1 Follow KMKY on AV Mobile MARCO ISLAND 120.075 239-394-8187
KMAIFAA ID MAI, ASOS, KMAI 272153Z AUTO 11005KT 10SM FEW110 20/18 A2977 RMK AO2 PRESFR SLP080 T02000183 PNO $ Follow KMAI on AV Mobile MARIANNA MUNICIPAL AIRPORT 133.525 850-482-6082
KHRTFAA ID HRT, KHRT 272116Z 00000KT 10SM BKN020 19/16 A2974 RMK AO2A RAE11 TSE07 PRESRR $ Follow KHRT on AV Mobile Hurlburt Field
KNRBFAA ID NRB, KNRB 272152Z 07007KT 10SM OVC013 20/17 A2983 RMK AO2 SLP100 T02000172 Follow KNRB on AV Mobile MAYPORT NAVAL AIR FACILITY
KMLBFAA ID MLB, ASOS, KMLB 272153Z 33015KT 10SM CLR 28/18 A2979 RMK AO2 SLP088 T02780183 Follow KMLB on AV Mobile MELBOURNE INTERNATIONAL 321-723-7403
KCOIFAA ID COI, AWOS-3 Merritt Island, Merritt Island Airport 119.025 321-986-8864
KTNTFAA ID TNT, AWOS-3 MIAMI 119.075 (239) 695-9198
KX87ICAO ID KX87 Miami Beach Coast Guard Station
KAMXICAO ID KAMX Miami Nexrad
KTMBFAA ID TMB, ASOS, KTMB 272153Z 18012KT 10SM CLR 33/22 A2975 RMK AO2 LTG DSNT N AND NE SLP073 T03330222 $ Follow KTMB on AV Mobile KENDALL-TAMIAMI EXEC AIRPORT 305-235-1332
KMIAFAA ID MIA, ASOS, KMIA 272153Z 13011KT 10SM FEW030 BKN060TCU BKN250 30/25 A2975 RMK AO2 SLP076 CB DSNT NW-NE TCU W-NE T03000250 $ Follow KMIA on AV Mobile MIAMI INTERNATIONAL AIRPORT 305-870-0235
KOPFFAA ID OPF, KOPF 272153Z 12011KT 10SM TS FEW031 SCT070 BKN090 29/26 A2975 RMK AO2 LTG DSNT NE AND NW RAB34E49 TSB34 SLP074 P0000 T02940256 Follow KOPF on AV Mobile MIAMI OPA LOCKA AIRPORT
KNFJFAA ID NFJ CHOCTAW, WHITING FIELD, NOLF
KNSEFAA ID NSE, KNSE 272156Z 08007KT 10SM FEW025 SCT100 OVC200 18/16 A2975 RMK AO2 SLP060 T1 SET T01780161 $ Follow KNSE on AV Mobile MILTON WHITING FIELD (NORTH)
KNDZFAA ID NDZ, KNDZ 272156Z 07008KT 10SM FEW032 BKN130 OVC200 19/16 A2975 RMK AO2 SLP060 T1 SET T01890161 $ Follow KNDZ on AV Mobile MILTON WHITING FIELD (SOUTH)
KAPFFAA ID APF, ASOS, KAPF 272153Z 26010KT 9SM CLR 31/23 A2979 RMK AO2 SLP088 T03060233 Follow KAPF on AV Mobile NAPLES MUNICIPAL AIRPORT 239-643-9886
KRRFICAO ID KRRF New Port Richey, Tampa Bay Executive Airport
KEVBFAA ID EVB, AWOS-3, KEVB 272147Z 00000KT 7SM BKN013 23/21 A2983 Follow KEVB on AV Mobile New Smyrna Beach, New Smyrna Beach Municipal Airport 124.625 386-409-4705
KOCFFAA ID OCF, AWOS-3, KOCF 272150Z 28008KT 7SM FEW035 BKN120 22/19 A2983 Follow KOCF on AV Mobile Ocala, Ocala International Airport-Jim Taylor Field 128.125 352-237-8525
KOBEFAA ID OBE, AWOS-3, KOBE 272155Z AUTO 28011G18KT 255V325 3/4SM +RA 22/20 RMK AO2 VIS M1/4V5 P0026 TSNO Follow KOBE on AV Mobile Okeechobee County Airport 118.675 863-467-1148
KORLFAA ID ORL, ASOS, KORL 272153Z 31009KT 10SM FEW100 26/19 A2982 RMK AO2 SLP101 T02610189 Follow KORL on AV Mobile ORLANDO EXECUTIVE AIRPORT 407-658-6753
KMCOFAA ID MCO, ASOS, KMCO 272153Z 32011KT 10SM FEW035 SCT085 BKN150 OVC250 26/19 A2983 RMK AO2 SLP098 T02610189 Follow KMCO on AV Mobile ORLANDO INTERNATIONAL AIRPORT 407-855-5235
KSFBFAA ID SFB, ASOS, KSFB 272153Z 34007KT 10SM FEW023 25/21 A2982 RMK AO2 SLP097 T02500206 Follow KSFB on AV Mobile ORLANDO SANFORD AIRPORT 407-321-9384
KISMFAA ID ISM, AWOS-3, KISM 272150Z 33012KT 10SM BKN110 27/21 A2983 Follow KISM on AV Mobile Orlando, Kissimmee Municipal Airport 128.775 407-847-0533
KOMNFAA ID OMN, AWOS-3, KOMN 272150Z 00000KT 3SM RA BKN120 22/20 A2982 Follow KOMN on AV Mobile Ormond Beach, Ormond Beach Municipal Airport 118.475 386-615-7084
28JFAA ID 28J, AWOS-3, KTEX 070640Z AUTO 15005KT 10SM CLR 02/M16 A3038 RMK AO2 T00201164 Follow  on AV Mobile PALATKA 119.92 386-312-2212
KXFLFAA ID XFL, AWOS-3, KXFL 132150Z VRB03KT 7SM CLR 21/18 A2999 Follow KXFL on AV Mobile PALM COAST 128.325 386-437-7334
KECPFAA ID ECP, ASOS, KECP 272153Z 11009KT 8SM FEW008 SCT046 BKN095 19/18 A2975 RMK AO2 RAE48 SLP087 P0006 T01890178 Follow KECP on AV Mobile PANAMA CITY 119.975 850-235-7857
KPFNICAO ID KPFN, KPFN 030253Z VRB03KT 10SM FEW023 25/23 A2989 Follow KPFN on AV Mobile PANAMA CITY-BAY CTY INTERNATIONAL
KPAMFAA ID PAM, KPAM 272058Z 34007KT 5SM -RA BKN013 OVC020 21/19 A2986 RMK AO2A LTG DSNT SW TSE58 OVC V BKN SLP115 P0007 60012 T02050193 53003 $ Follow KPAM on AV Mobile Tyndall Air Force Base
KPNSFAA ID PNS, ASOS, KPNS 272153Z 01012G20KT 10SM BKN008 18/17 A2972 RMK AO2 RAB18E37 SLP066 P0000 T01830172 Follow KPNS on AV Mobile PENSACOLA REGIONAL AIRPORT 850-436-4799
KNPAFAA ID NPA, KNPA 272156Z 36009KT 10SM FEW045 SCT110 BKN250 22/18 A2971 RMK AO2 PK WND 14026/2120 RAE34 PRESRR SLP061 T2 SET P0000 T02170183 $ Follow KNPA on AV Mobile Pensacola, Naval Air Station
K40JFAA ID 40J, AWOS-3PT, K40J 272155Z AUTO 30004KT 5SM -RA BKN028 BKN035 OVC110 23/22 A2984 RMK AO2 LTG DSNT W P0001 T02250215 Follow K40J on AV Mobile PERRY-FOLEY AIRPORT 118.375 850-838-3526
FA54FAA ID FA54, Belfort CORAL CREEK
KPCMFAA ID PCM, AWOS-3, KPCM 272155Z AUTO 35008KT 10SM SCT100 27/20 A2984 RMK AO2 Follow KPCM on AV Mobile Plant City, Plant City Municipal Airport 120.025 813-764-8259
KPMPFAA ID PMP, ASOS, KPMP 272153Z 15012KT 7SM FEW060 FEW070 30/23 A2976 RMK AO2 LTG DSNT S AND SW RAB04E19 TSB21E36 SLP080 P0000 T03000233 Follow KPMP on AV Mobile POMPANO BEACH AIRPARK 954-783-3720
K1J3ICAO ID K1J3 Ponce De Leon Inlet
KPGDFAA ID PGD, ASOS, KPGD 272153Z AUTO 27009KT 10SM BKN080 31/22 A2982 RMK AO2 LTG DSNT NE SLP096 T03060217 Follow KPGD on AV Mobile PUNTA GORDA CHARLOTTE COUNTY 135.675 941-639-0076
K1J5ICAO ID K1J5 Santa Rosa Coast Guard Station
KSRQFAA ID SRQ, ASOS, KSRQ 272153Z AUTO 03008KT 10SM CLR 28/20 A2979 RMK AO2 SLP087 T02830200 Follow KSRQ on AV Mobile SARASOTA/BRADENTON INTERNATIONAL . 124.375 941-359-0117
KSEFFAA ID SEF, AWOS-3 SEBRING 119.475 863-655-6424
KSGJFAA ID SGJ, AWOS-3, KSGJ 272058Z 04008KT 5SM HZ OVC013 21/18 A2985 RMK AO2 SLP106 T02110183 51009 Follow KSGJ on AV Mobile St. Augustine, St. Augustine Airport 904-824-7084
KPIEFAA ID PIE, ASOS, KPIE 272153Z 35016G22KT 10SM BKN085 27/18 A2982 RMK AO2 SLP098 T02670183 Follow KPIE on AV Mobile ST PETERSBURG/CLEARWATER 727-531-3456
KSPGFAA ID SPG, ASOS, KSPG 272153Z 01015G22KT 10SM BKN080 28/18 A2980 RMK AO2 SLP090 T02780178 Follow KSPG on AV Mobile ST PETERSBURG WHITTED AIRPORT 118.875 727-821-4334
KSUAFAA ID SUA, AWOS-3, KSUA 272150Z 04017KT 7SM VCSH BKN085 26/20 A2978 Follow KSUA on AV Mobile Stuart, Witham Field Airport 772-692-7399
KTLHFAA ID TLH, ASOS, KTLH 272153Z 32004KT 9SM -TSRA BKN021 BKN028CB OVC034 22/19 A2985 RMK AO2 SLP105 OCNL LTGIC OHD TS OHD-S MOV E P0004 T02220189 Follow KTLH on AV Mobile TALLAHASSEE REGIONAL AIRPORT 850-576-3665
KTBWICAO ID KTBW Tampa Bay Area
KMCFFAA ID MCF, KMCF 272058Z AUTO 35008KT 10SM FEW200 28/21 A2981 RMK AO2 SLP098 T02820209 50001 Follow KMCF on AV Mobile Macdill Air Force Base, Fl.
KTPAFAA ID TPA, ASOS, KTPA 272153Z 34018G25KT 10SM SCT085 OVC180 27/17 A2983 RMK AO2 SLP099 T02670172 Follow KTPA on AV Mobile TAMPA INTERNATIONAL AIRPORT 813-873-7228
KTPFFAA ID TPF, AWOS-3, KTPF 272155Z AUTO 01010G15KT 315V055 10SM CLR 28/18 A2982 RMK AO2 Follow KTPF on AV Mobile Tampa, Peter O Knight Airport 118.925 813-251-6824
KVDFFAA ID VDF, AWOS-3, KVDF 272155Z AUTO 35007G17KT 10SM SCT100 27/18 A2983 RMK AO2 Follow KVDF on AV Mobile Tampa, Vandenberg Airport 121.125 813-630-0924
KVLGICAO ID KVLG The Villages
KVVGICAO ID KVVG, KVVG 272135Z AUTO 29005KT 9SM 24/24 A2974 RMK A01 Follow KVVG on AV Mobile The Villages
KX68ICAO ID KX68 Titusville, NASA Shuttle Landing Facility
KTIXFAA ID TIX, KTIX 272147Z 30005KT 7SM OVC100 26/21 A2982 Follow KTIX on AV Mobile Titusville
KX21FAA ID X21, AWOS-3 Titusville, Arthur Dunn Air Park 119.725 321-385-0383
KTTSFAA ID TTS, KTTS 272058Z AUTO 02007KT 10SM FEW017 BKN140 26/21 A2980 RMK AO2 SLP095 60000 T02550206 53007 Follow KTTS on AV Mobile Titusville, NASA Shuttle Landing Facility
KVPSFAA ID VPS, KVPS 272155Z 07007KT 8SM SCT007 BKN030 OVC200 19/18 A2975 RMK AO2A SLP080 P0000 T01870177 $ Follow KVPS on AV Mobile Valparaiso / Eglin Air Force Base
KVNCFAA ID VNC, AWOS-3, KVNC 272135Z AUTO 31009KT 10SM CLR 29/22 A2981 RMK AO2 Follow KVNC on AV Mobile VENICE 119.275
KX90ICAO ID KX90 Venice Long Range Navigation
KVRBFAA ID VRB, ASOS, KVRB 272153Z 34015G21KT 10SM CLR 28/18 A2979 RMK AO2 LTG DSNT S-W SLP088 T02780183 Follow KVRB on AV Mobile VERO BEACH MUNICIPAL AIRPORT 772-978-9535
F45FAA ID F45, AWOS-3, KTEX 070640Z AUTO 15005KT 10SM CLR 02/M16 A3038 RMK AO2 T00201164 Follow  on AV Mobile WEST PALM BEACH 119.975 561-630-6932
KLNAFAA ID LNA, AWOS-3 WEST PALM BEACH 119.925 561-964-0308
KPBIFAA ID PBI, ASOS, KPBI 272153Z 09013KT 10SM SCT028CB BKN060 BKN250 30/22 A2977 RMK AO2 SLP080 CB SE-SW MOV NE T03000217 Follow KPBI on AV Mobile PALM BEACH INTERNATIONAL 123.75 561-683-2548
FD38FAA ID FD38, Belfort WELLINGTON AERO CLUB
X60FAA ID X60, AWOS-3, KTEX 070640Z AUTO 15005KT 10SM CLR 02/M16 A3038 RMK AO2 T00201164 Follow  on AV Mobile WILLISTON 118.425 352-528-9949
KGIFFAA ID GIF, ASOS, KGIF 272153Z AUTO 34013G20KT 10SM SCT090 27/19 A2984 RMK AO2 SLP103 T02720189 Follow KGIF on AV Mobile WINTER HAVENS GILBERT AIRPORT 133.675 863-956-2097
KZPHFAA ID ZPH, ASOS, KZPH 021315Z AUTO 00000KT 10SM CLR 18/18 A3022 RMK AO2 Follow KZPH on AV Mobile ZEPHYRHILLS 118.975 813-780-0031

Click on the AV Mobile icon AV Mobile icon by any station to follow that AWOS feed on AirportView.net Mobile.

Garmin aera 796 $1999 at Avionics Specialists LLC
Bose A20 Aviation Headsets $995 at Avionics Specialists LLC